Time,TemperatureF,DewpointF,PressureIn,WindDirection,WindDirectionDegrees,WindSpeedMPH,WindSpeedGustMPH,Humidity,HourlyPrecipIn,Conditions,Clouds,dailyrainin,SolarRadiationWatts/m^2,SoftwareType,DateUTC
2013-05-20 00:06:00,51.5,41.7,30.09,WNW,285,12.0,15.0,69,0.00,,,0.00,0,Wunderground v.1.15,2013-05-20 06:06:00,
2013-05-20 00:56:00,51.1,40.9,30.09,WNW,285,13.0,15.0,68,0.00,,,0.00,0,Wunderground v.1.15,2013-05-20 06:56:00,
2013-05-20 01:04:00,51.0,40.4,30.10,WNW,285,15.0,15.0,67,0.00,,,0.00,0,Wunderground v.1.15,2013-05-20 07:04:00,
2013-05-20 01:10:00,51.0,41.6,30.09,WNW,285,14.0,15.0,70,0.00,,,0.00,0,Wunderground v.1.15,2013-05-20 07:10:00,
2013-05-20 01:18:00,50.7,40.9,30.10,WNW,297,14.0,15.0,69,0.00,,,0.00,0,Wunderground v.1.15,2013-05-20 07:18:00,
2013-05-20 01:26:00,50.5,41.1,30.09,WNW,285,12.0,15.0,70,0.00,,,0.00,0,Wunderground v.1.15,2013-05-20 07:26:00,
2013-05-20 01:42:00,50.3,41.3,30.10,WNW,290,15.0,15.0,71,0.00,,,0.00,0,Wunderground v.1.15,2013-05-20 07:42:00,
2013-05-20 01:52:00,50.1,41.1,30.10,WNW,293,14.0,15.0,71,0.00,,,0.00,0,Wunderground v.1.15,2013-05-20 07:52:00,
2013-05-20 02:02:00,50.1,41.8,30.10,WNW,285,13.0,16.0,73,0.00,,,0.00,0,Wunderground v.1.15,2013-05-20 08:02:00,
2013-05-20 02:10:00,50.1,41.8,30.10,WNW,299,12.0,16.0,73,0.00,,,0.00,0,Wunderground v.1.15,2013-05-20 08:10:00,
2013-05-20 02:20:00,49.7,41.0,30.11,WNW,299,11.0,16.0,72,0.00,,,0.00,0,Wunderground v.1.15,2013-05-20 08:20:00,
2013-05-20 02:32:00,49.7,41.7,30.10,WNW,290,13.0,16.0,74,0.00,,,0.00,0,Wunderground v.1.15,2013-05-20 08:32:00,
2013-05-20 02:54:00,49.1,41.9,30.11,WNW,302,11.0,16.0,76,0.00,,,0.00,0,Wunderground v.1.15,2013-05-20 08:54:00,
2013-05-20 03:02:00,48.6,41.4,30.11,NW,317,10.0,16.0,76,0.00,,,0.00,0,Wunderground v.1.15,2013-05-20 09:02:00,
2013-05-20 03:10:00,48.5,41.3,30.12,NW,320,7.0,7.0,76,0.00,,,0.00,0,Wunderground v.1.15,2013-05-20 09:10:00,
2013-05-20 03:28:00,48.5,41.6,30.11,WNW,297,2.0,16.0,77,0.00,,,0.00,0,Wunderground v.1.15,2013-05-20 09:28:00,
2013-05-20 03:48:00,48.8,41.2,30.11,WNW,285,4.0,16.0,75,0.00,,,0.00,0,Wunderground v.1.15,2013-05-20 09:48:00,
2013-05-20 04:34:00,49.0,42.1,30.11,West,275,5.0,16.0,77,0.00,,,0.00,0,Wunderground v.1.15,2013-05-20 10:34:00,
2013-05-20 04:40:00,49.0,41.4,30.11,West,275,5.0,5.0,75,0.00,,,0.00,0,Wunderground v.1.15,2013-05-20 10:40:00,
2013-05-20 05:26:00,48.3,41.8,30.12,WNW,285,11.0,16.0,78,0.00,,,0.00,0,Wunderground v.1.15,2013-05-20 11:26:00,
2013-05-20 05:34:00,48.5,42.0,30.12,NW,314,11.0,16.0,78,0.00,,,0.00,0,Wunderground v.1.15,2013-05-20 11:34:00,
2013-05-20 05:48:00,48.5,41.6,30.12,WNW,301,10.0,16.0,77,0.00,,,0.00,0,Wunderground v.1.15,2013-05-20 11:48:00,
2013-05-20 05:54:00,48.5,41.6,30.12,WNW,297,11.0,16.0,77,0.00,,,0.00,0,Wunderground v.1.15,2013-05-20 11:54:00,
2013-05-20 06:02:00,48.4,41.5,30.12,NW,312,10.0,15.0,77,0.00,,,0.00,0,Wunderground v.1.15,2013-05-20 12:02:00,
2013-05-20 06:14:00,48.6,42.0,30.13,WNW,295,11.0,15.0,78,0.00,,,0.00,0,Wunderground v.1.15,2013-05-20 12:14:00,
2013-05-20 06:20:00,48.6,41.4,30.13,WNW,294,10.0,15.0,76,0.00,,,0.00,0,Wunderground v.1.15,2013-05-20 12:20:00,
2013-05-20 06:28:00,48.5,41.6,30.12,NW,306,10.0,15.0,77,0.00,,,0.00,5,Wunderground v.1.15,2013-05-20 12:28:00,
2013-05-20 06:50:00,48.8,41.9,30.13,West,280,11.0,15.0,77,0.00,,,0.00,5,Wunderground v.1.15,2013-05-20 12:50:00,
2013-05-20 07:00:00,48.6,42.0,30.13,West,280,10.0,15.0,78,0.00,,,0.00,12,Wunderground v.1.15,2013-05-20 13:00:00,
2013-05-20 07:06:00,48.5,41.6,30.13,West,280,11.0,15.0,77,0.00,,,0.00,21,Wunderground v.1.15,2013-05-20 13:06:00,
2013-05-20 07:50:00,47.3,42.4,30.14,West,263,9.0,9.0,83,0.00,,,0.00,40,Wunderground v.1.15,2013-05-20 13:50:00,
2013-05-20 07:56:00,47.4,42.8,30.14,WSW,255,8.0,15.0,84,0.00,,,0.00,35,Wunderground v.1.15,2013-05-20 13:56:00,
2013-05-20 08:10:00,47.2,42.9,30.15,WSW,251,8.0,8.0,85,0.00,,,0.00,32,Wunderground v.1.15,2013-05-20 14:10:00,
2013-05-20 08:24:00,47.2,43.2,30.15,WSW,249,7.0,15.0,86,0.00,,,0.00,47,Wunderground v.1.15,2013-05-20 14:24:00,
2013-05-20 08:32:00,47.2,42.9,30.15,WSW,249,7.0,15.0,85,0.00,,,0.00,54,Wunderground v.1.15,2013-05-20 14:32:00,
2013-05-20 09:14:00,47.5,43.2,30.16,West,260,7.0,15.0,85,0.00,,,0.00,77,Wunderground v.1.15,2013-05-20 15:14:00,
2013-05-20 09:30:00,47.7,43.1,30.16,West,264,7.0,15.0,84,0.00,,,0.00,100,Wunderground v.1.15,2013-05-20 15:30:00,
2013-05-20 09:46:00,48.1,43.2,30.16,WNW,285,7.0,15.0,83,0.00,,,0.00,120,Wunderground v.1.15,2013-05-20 15:46:00,
2013-05-20 09:56:00,48.3,42.7,30.15,West,270,7.0,15.0,81,0.00,,,0.00,141,Wunderground v.1.15,2013-05-20 15:56:00,
2013-05-20 10:24:00,49.2,43.3,30.15,West,269,8.0,15.0,80,0.00,,,0.01,211,Wunderground v.1.15,2013-05-20 16:24:00,
2013-05-20 10:30:00,49.4,42.8,30.15,WNW,285,9.0,9.0,78,0.00,,,0.01,230,Wunderground v.1.15,2013-05-20 16:30:00,
2013-05-20 10:54:00,50.2,43.9,30.15,West,275,9.0,15.0,79,0.00,,,0.01,232,Wunderground v.1.15,2013-05-20 16:54:00,
2013-05-20 11:00:00,50.2,42.6,30.15,West,280,10.0,10.0,75,0.00,,,0.01,225,Wunderground v.1.15,2013-05-20 17:00:00,
2013-05-20 11:06:00,50.3,43.7,30.15,West,280,10.0,15.0,78,0.00,,,0.01,262,Wunderground v.1.15,2013-05-20 17:06:00,
2013-05-20 11:12:00,50.4,43.8,30.15,West,275,9.0,15.0,78,0.00,,,0.01,258,Wunderground v.1.15,2013-05-20 17:12:00,
2013-05-20 11:18:00,50.5,43.2,30.15,WNW,285,10.0,15.0,76,0.00,,,0.01,246,Wunderground v.1.15,2013-05-20 17:18:00,
2013-05-20 11:28:00,50.5,43.2,30.15,West,260,9.0,15.0,76,0.00,,,0.01,288,Wunderground v.1.15,2013-05-20 17:28:00,
2013-05-20 11:40:00,50.9,43.3,30.15,WSW,251,7.0,15.0,75,0.00,,,0.01,229,Wunderground v.1.15,2013-05-20 17:40:00,
2013-05-20 11:48:00,51.1,43.1,30.15,West,270,7.0,15.0,74,0.00,,,0.01,258,Wunderground v.1.15,2013-05-20 17:48:00,
2013-05-20 12:00:00,51.6,43.9,30.14,SW,236,7.0,15.0,75,0.00,,,0.01,353,Wunderground v.1.15,2013-05-20 18:00:00,
2013-05-20 12:08:00,51.7,43.0,30.14,West,269,7.0,15.0,72,0.00,,,0.01,770,Wunderground v.1.15,2013-05-20 18:08:00,
2013-05-20 12:16:00,51.9,42.8,30.13,WSW,237,7.0,15.0,71,0.00,,,0.01,439,Wunderground v.1.15,2013-05-20 18:16:00,
2013-05-20 12:24:00,52.4,43.3,30.13,West,271,7.0,15.0,71,0.00,,,0.01,1160,Wunderground v.1.15,2013-05-20 18:24:00,
2013-05-20 12:34:00,53.3,43.4,30.13,WSW,241,8.0,15.0,69,0.00,,,0.01,1111,Wunderground v.1.15,2013-05-20 18:34:00,
2013-05-20 12:44:00,53.9,43.6,30.13,West,259,6.0,15.0,68,0.00,,,0.01,738,Wunderground v.1.15,2013-05-20 18:44:00,
2013-05-20 13:00:00,54.7,44.0,30.13,West,268,7.0,7.0,67,0.00,,,0.01,682,Wunderground v.1.15,2013-05-20 19:00:00,
2013-05-20 13:14:00,55.1,43.5,30.12,West,266,6.0,15.0,65,0.00,,,0.01,680,Wunderground v.1.15,2013-05-20 19:14:00,
2013-05-20 13:22:00,55.1,43.1,30.12,West,269,8.0,15.0,64,0.00,,,0.01,643,Wunderground v.1.15,2013-05-20 19:22:00,
2013-05-20 13:32:00,55.4,44.2,30.11,SW,232,7.0,15.0,66,0.00,,,0.01,717,Wunderground v.1.15,2013-05-20 19:32:00,
2013-05-20 13:38:00,55.7,44.5,30.11,WSW,258,9.0,15.0,66,0.00,,,0.01,1107,Wunderground v.1.15,2013-05-20 19:38:00,
2013-05-20 14:46:00,58.1,42.9,30.08,SSE,159,6.0,15.0,57,0.00,,,0.01,888,Wunderground v.1.15,2013-05-20 20:46:00,
2013-05-20 14:52:00,58.2,44.8,30.08,WSW,249,5.0,15.0,61,0.00,,,0.00,893,Wunderground v.1.15,2013-05-20 20:52:00,
2013-05-20 14:58:00,58.1,44.3,30.08,WSW,240,6.0,15.0,60,0.00,,,0.00,886,Wunderground v.1.15,2013-05-20 20:58:00,
2013-05-20 15:12:00,58.6,44.3,30.07,West,280,10.0,16.0,59,0.00,,,0.00,795,Wunderground v.1.15,2013-05-20 21:12:00,
2013-05-20 15:20:00,58.5,41.9,30.07,WNW,289,11.0,16.0,54,0.00,,,0.00,860,Wunderground v.1.15,2013-05-20 21:20:00,
2013-05-20 15:32:00,59.3,42.2,30.06,WSW,242,7.0,16.0,53,0.00,,,0.00,844,Wunderground v.1.15,2013-05-20 21:32:00,
2013-05-20 15:40:00,59.5,42.8,30.06,West,275,8.0,16.0,54,0.00,,,0.00,853,Wunderground v.1.15,2013-05-20 21:40:00,
2013-05-20 15:52:00,59.7,42.5,30.05,SW,235,8.0,8.0,53,0.00,,,0.00,823,Wunderground v.1.15,2013-05-20 21:52:00,
2013-05-20 16:08:00,60.0,42.3,30.05,SSW,202,7.0,16.0,52,0.00,,,0.00,810,Wunderground v.1.15,2013-05-20 22:08:00,
2013-05-20 16:48:00,60.9,41.6,30.04,SW,233,7.0,16.0,49,0.00,,,0.00,719,Wunderground v.1.15,2013-05-20 22:48:00,
2013-05-20 17:00:00,61.2,41.3,30.03,WNW,289,6.0,6.0,48,0.00,,,0.00,666,Wunderground v.1.15,2013-05-20 23:00:00,
2013-05-20 17:06:00,61.5,41.1,30.03,SW,233,6.0,16.0,47,0.00,,,0.00,643,Wunderground v.1.15,2013-05-20 23:06:00,
2013-05-20 17:12:00,61.5,41.1,30.03,SW,235,6.0,16.0,47,0.00,,,0.00,642,Wunderground v.1.15,2013-05-20 23:12:00,
2013-05-20 17:22:00,61.9,41.4,30.03,SW,214,3.0,16.0,47,0.00,,,0.00,622,Wunderground v.1.15,2013-05-20 23:22:00,
2013-05-20 17:40:00,62.9,40.6,30.02,West,270,3.0,16.0,44,0.00,,,0.00,559,Wunderground v.1.15,2013-05-20 23:40:00,
2013-05-20 17:56:00,62.4,41.3,30.01,WSW,237,4.0,16.0,46,0.00,,,0.00,504,Wunderground v.1.15,2013-05-20 23:56:00,
2013-05-20 18:04:00,62.0,41.0,30.01,SW,226,7.0,16.0,46,0.00,,,0.00,483,Wunderground v.1.15,2013-05-21 00:04:00,
2013-05-20 18:32:00,61.3,41.4,30.01,SSW,212,9.0,16.0,48,0.00,,,0.00,366,Wunderground v.1.15,2013-05-21 00:32:00,
2013-05-20 18:46:00,60.5,41.2,30.00,SSW,212,7.0,16.0,49,0.00,,,0.00,209,Wunderground v.1.15,2013-05-21 00:46:00,
2013-05-20 18:52:00,60.4,40.6,30.00,SW,230,7.0,16.0,48,0.00,,,0.00,127,Wunderground v.1.15,2013-05-21 00:52:00,
2013-05-20 18:58:00,60.4,40.6,30.00,SW,230,6.0,16.0,48,0.00,,,0.00,214,Wunderground v.1.15,2013-05-21 00:58:00,
2013-05-20 19:06:00,60.7,42.5,30.00,WSW,250,6.0,16.0,51,0.00,,,0.00,100,Wunderground v.1.15,2013-05-21 01:06:00,
2013-05-20 19:16:00,60.3,40.5,30.00,WSW,245,8.0,16.0,48,0.00,,,0.00,90,Wunderground v.1.15,2013-05-21 01:16:00,
2013-05-20 19:38:00,60.2,41.0,30.00,NW,323,8.0,16.0,49,0.00,,,0.00,111,Wunderground v.1.15,2013-05-21 01:38:00,
2013-05-20 19:52:00,60.0,40.8,30.00,North,6,8.0,16.0,49,0.00,,,0.00,121,Wunderground v.1.15,2013-05-21 01:52:00,
2013-05-20 20:01:00,60.3,41.0,29.99,NNE,27,6.0,6.0,49,0.00,,,0.00,93,Wunderground v.1.15,2013-05-21 02:01:00,
2013-05-20 20:08:00,60.2,40.4,29.99,North,9,7.0,15.0,48,0.00,,,0.00,63,Wunderground v.1.15,2013-05-21 02:08:00,
2013-05-20 20:26:00,59.7,40.0,29.99,North,5,7.0,15.0,48,0.00,,,0.00,25,Wunderground v.1.15,2013-05-21 02:26:00,
2013-05-20 20:42:00,58.7,39.6,29.99,North,2,6.0,15.0,49,0.00,,,0.00,12,Wunderground v.1.15,2013-05-21 02:42:00,
2013-05-20 20:50:00,58.5,39.9,29.99,North,4,6.0,15.0,50,0.00,,,0.00,9,Wunderground v.1.15,2013-05-21 02:50:00,
2013-05-20 20:56:00,58.1,40.6,29.99,NNE,13,7.0,15.0,52,0.00,,,0.00,7,Wunderground v.1.15,2013-05-21 02:56:00,
2013-05-20 21:02:00,57.8,40.8,29.99,NNE,18,7.0,15.0,53,0.00,,,0.00,0,Wunderground v.1.15,2013-05-21 03:02:00,
2013-05-20 21:14:00,56.8,40.3,29.99,NNE,18,9.0,15.0,54,0.00,,,0.00,0,Wunderground v.1.15,2013-05-21 03:14:00,
2013-05-20 21:36:00,55.8,40.8,29.99,North,11,9.0,15.0,57,0.00,,,0.00,0,Wunderground v.1.15,2013-05-21 03:36:00,
2013-05-20 21:50:00,55.1,41.0,29.99,North,9,9.0,9.0,59,0.00,,,0.00,0,Wunderground v.1.15,2013-05-21 03:50:00,
2013-05-20 22:00:00,55.0,42.2,30.00,NNE,19,4.0,4.0,62,0.00,,,0.00,0,Wunderground v.1.15,2013-05-21 04:00:00,
2013-05-20 22:24:00,55.5,42.7,29.99,East,84,7.0,15.0,62,0.00,,,0.00,0,Wunderground v.1.15,2013-05-21 04:24:00,
2013-05-20 22:38:00,55.5,41.8,30.00,NE,53,7.0,15.0,60,0.00,,,0.00,0,Wunderground v.1.15,2013-05-21 04:38:00,
2013-05-20 22:50:00,55.2,42.4,30.00,SSE,149,2.0,15.0,62,0.00,,,0.00,0,Wunderground v.1.15,2013-05-21 04:50:00,
2013-05-20 23:16:00,52.9,44.1,30.00,SSE,164,6.0,15.0,72,0.00,,,0.00,0,Wunderground v.1.15,2013-05-21 05:16:00,
2013-05-20 23:28:00,52.5,43.7,30.00,SE,137,8.0,15.0,72,0.00,,,0.00,0,Wunderground v.1.15,2013-05-21 05:28:00,
2013-05-20 23:34:00,52.6,43.5,30.00,ESE,122,8.0,15.0,71,0.00,,,0.00,0,Wunderground v.1.15,2013-05-21 05:34:00,